Time;durP1;ratioP1;P1;durP2;ratioP2;P2;SDS_P1;SDS_P2;PMS_P1;PMS_P2;Temp;Humidity;BMP_temperature;BMP_pressure;BME280_temperature;BME280_humidity;BME280_pressure;Samples;Min_cycle;Max_cycle;Signal;HPM_P1;HPM_P2
2021/12/05 00:22:32;;;;;;;5.82;1.20;;;7.40;74.30;;;;;;5026574;28;20042;-75
2021/12/05 00:24:54;;;;;;;3.38;1.45;;;7.40;74.40;;;;;;5022313;28;20045;-75
2021/12/05 00:27:25;;;;;;;5.13;1.05;;;7.40;74.40;;;;;;5026387;28;20511;-73
2021/12/05 01:02:15;;;;;;;3.15;0.85;;;7.30;74.40;;;;;;5024530;28;20041;-74
2021/12/05 01:15:26;;;;;;;2.17;1.33;;;7.40;74.50;;;;;;4989996;28;20184;-75
2021/12/05 01:20:22;;;;;;;4.35;1.35;;;7.40;74.50;;;;;;5018395;28;20030;-73
2021/12/05 01:22:58;;;;;;;3.80;0.93;;;7.40;75.00;;;;;;5019798;28;20080;-75
2021/12/05 01:30:55;;;;;;;4.25;1.20;;;7.40;74.50;;;;;;5040775;28;20043;-75
2021/12/05 01:36:06;;;;;;;5.37;1.13;;;7.40;74.50;;;;;;5027585;28;20037;-74
2021/12/05 01:47:20;;;;;;;5.57;1.30;;;7.30;74.30;;;;;;5007634;28;20030;-76
2021/12/05 01:58:12;;;;;;;1.95;0.98;;;7.40;74.50;;;;;;5024290;28;20026;-84
2021/12/05 02:01:13;;;;;;;;;;;7.40;74.50;;;;;;5008700;28;20041;-74
2021/12/05 02:09:36;;;;;;;4.80;1.08;;;7.40;74.40;;;;;;5026994;28;20060;-74
2021/12/05 02:41:47;;;;;;;5.70;1.65;;;7.40;74.30;;;;;;5025080;28;20056;-74
2021/12/05 02:44:23;;;;;;;3.38;0.70;;;7.40;74.40;;;;;;5029963;28;20022;-75
2021/12/05 02:47:08;;;;;;;4.60;1.02;;;7.40;74.40;;;;;;5044675;28;20029;-73
2021/12/05 02:49:38;;;;;;;4.20;1.65;;;7.50;74.60;;;;;;5033237;28;20061;-75
2021/12/05 02:52:09;;;;;;;2.60;0.95;;;7.50;74.60;;;;;;5032389;28;20032;-91
2021/12/05 02:54:44;;;;;;;4.00;0.85;;;7.50;74.60;;;;;;5015368;28;20029;-81
2021/12/05 02:57:12;;;;;;;7.63;1.23;;;7.50;74.60;;;;;;5031391;28;20116;-74
2021/12/05 02:59:54;;;;;;;4.35;1.20;;;7.50;74.50;;;;;;5014697;28;20042;-78
2021/12/05 03:02:26;;;;;;;5.05;1.02;;;7.50;74.50;;;;;;4994975;28;20513;-79
2021/12/05 03:04:56;;;;;;;3.15;0.95;;;7.50;74.50;;;;;;5011545;28;20481;-76
2021/12/05 03:07:27;;;;;;;5.40;0.98;;;7.50;74.50;;;;;;5013414;28;20038;-85
2021/12/05 03:09:54;;;;;;;4.10;1.30;;;7.50;74.50;;;;;;5011614;28;20061;-73
2021/12/05 03:12:21;;;;;;;3.50;1.25;;;7.50;74.50;;;;;;5011909;28;20033;-76
2021/12/05 03:14:50;;;;;;;3.80;1.02;;;7.50;74.50;;;;;;5011987;28;20030;-86
2021/12/05 03:17:17;;;;;;;4.05;1.20;;;7.50;74.50;;;;;;5011592;28;20478;-88
2021/12/05 03:19:43;;;;;;;4.10;1.15;;;7.50;74.50;;;;;;5011830;28;20547;-78
2021/12/05 03:22:10;;;;;;;3.45;0.95;;;7.40;74.30;;;;;;4995059;28;20495;-73
2021/12/05 03:24:36;;;;;;;4.18;1.17;;;7.40;74.30;;;;;;5011176;28;20053;-73
2021/12/05 03:27:03;;;;;;;3.08;0.98;;;7.50;74.50;;;;;;5012619;28;20076;-74
2021/12/05 03:29:29;;;;;;;3.00;0.93;;;7.50;74.50;;;;;;5011452;28;20029;-74
2021/12/05 03:31:55;;;;;;;3.17;0.85;;;7.50;74.50;;;;;;5010955;28;20053;-74
2021/12/05 03:34:26;;;;;;;7.13;1.45;;;7.50;74.50;;;;;;5012805;28;20117;-81
2021/12/05 03:36:55;;;;;;;3.70;0.90;;;7.50;74.50;;;;;;5030920;28;20030;-74
2021/12/05 03:39:24;;;;;;;3.80;1.55;;;7.50;74.50;;;;;;5030531;28;20026;-83
2021/12/05 03:41:53;;;;;;;4.30;1.05;;;7.60;74.90;;;;;;5014453;28;20042;-75
2021/12/05 03:44:21;;;;;;;1.67;0.82;;;7.60;74.70;;;;;;5030505;28;20034;-74
2021/12/05 03:46:50;;;;;;;3.28;1.10;;;7.60;74.70;;;;;;5047477;28;20100;-73
2021/12/05 03:49:17;;;;;;;4.15;1.10;;;7.60;74.70;;;;;;5030506;28;20025;-84
2021/12/05 03:51:52;;;;;;;4.97;1.13;;;7.60;74.70;;;;;;5030575;28;20697;-75
2021/12/05 03:54:20;;;;;;;2.83;1.00;;;7.60;75.20;;;;;;5030713;28;20057;-75
2021/12/05 03:56:47;;;;;;;4.38;1.10;;;7.60;74.70;;;;;;5046880;28;20437;-74
2021/12/05 03:59:17;;;;;;;2.85;0.68;;;7.60;74.60;;;;;;5047344;28;20465;-79
2021/12/05 04:01:47;;;;;;;4.07;1.05;;;7.60;74.60;;;;;;5030391;28;20048;-77
2021/12/05 04:04:17;;;;;;;2.35;0.80;;;7.70;74.80;;;;;;5013761;28;20033;-75
2021/12/05 04:06:44;;;;;;;1.95;0.82;;;7.70;74.70;;;;;;5030834;28;20026;-82
2021/12/05 04:09:12;;;;;;;2.45;0.93;;;7.70;74.60;;;;;;5032384;28;20030;-77
2021/12/05 04:11:44;;;;;;;3.00;0.90;;;7.70;74.60;;;;;;5031756;28;20041;-73
2021/12/05 04:14:13;;;;;;;1.25;0.80;;;7.70;75.10;;;;;;5030331;28;20443;-73
2021/12/05 04:16:40;;;;;;;6.47;1.35;;;7.70;74.50;;;;;;5014195;28;20496;-80
2021/12/05 04:19:08;;;;;;;1.58;0.80;;;7.70;74.50;;;;;;5030948;28;20388;-77
2021/12/05 04:21:36;;;;;;;3.45;0.85;;;7.60;74.30;;;;;;5030894;28;20044;-77
2021/12/05 04:24:06;;;;;;;1.52;0.75;;;7.60;74.30;;;;;;5031115;28;20550;-73
2021/12/05 04:26:34;;;;;;;1.60;0.80;;;7.60;74.30;;;;;;5029836;28;20033;-82
2021/12/05 04:29:01;;;;;;;2.22;1.10;;;7.60;74.30;;;;;;5030495;28;20108;-73
2021/12/05 04:31:29;;;;;;;2.72;0.90;;;7.60;74.30;;;;;;5029707;28;20064;-84
2021/12/05 04:33:55;;;;;;;3.17;0.95;;;7.60;74.30;;;;;;5029516;28;20037;-72
2021/12/05 04:36:23;;;;;;;1.20;0.60;;;7.60;74.30;;;;;;5012833;28;20036;-73
2021/12/05 04:38:51;;;;;;;3.00;0.70;;;7.60;74.30;;;;;;5016824;28;20053;-73
2021/12/05 04:41:17;;;;;;;3.40;0.65;;;7.60;74.30;;;;;;4998553;28;20039;-74
2021/12/05 04:43:47;;;;;;;1.48;0.52;;;7.60;74.30;;;;;;5010194;28;20034;-73
2021/12/05 04:46:17;;;;;;;2.67;0.82;;;7.60;74.30;;;;;;5011634;28;20037;-82
2021/12/05 04:48:49;;;;;;;4.80;1.00;;;7.60;74.30;;;;;;4994371;28;20034;-73
2021/12/05 04:51:18;;;;;;;1.80;0.60;;;7.60;74.30;;;;;;5010247;28;20437;-78
2021/12/05 04:53:45;;;;;;;4.90;0.60;;;7.60;74.30;;;;;;5007515;28;20034;-73
2021/12/05 04:56:11;;;;;;;1.08;0.43;;;7.60;74.30;;;;;;5009956;28;20034;-73
2021/12/05 04:58:37;;;;;;;4.03;0.65;;;7.60;74.30;;;;;;5025914;28;20026;-73
2021/12/05 05:01:05;;;;;;;2.60;0.60;;;7.60;74.30;;;;;;5026430;28;20749;-73
2021/12/05 05:03:33;;;;;;;2.53;0.75;;;7.60;74.30;;;;;;5017783;28;20037;-75
2021/12/05 05:06:07;;;;;;;1.75;0.50;;;7.60;74.30;;;;;;5031058;28;20025;-78
2021/12/05 05:08:33;;;;;;;2.65;0.60;;;7.60;74.30;;;;;;5029020;28;20034;-73
2021/12/05 05:11:03;;;;;;;1.77;0.80;;;7.60;74.40;;;;;;5032576;28;20029;-72
2021/12/05 05:13:30;;;;;;;2.67;1.00;;;7.60;74.30;;;;;;5034647;28;20029;-74
2021/12/05 05:15:57;;;;;;;2.53;0.90;;;7.60;74.30;;;;;;5034810;28;20366;-86
2021/12/05 05:18:26;;;;;;;2.17;0.50;;;7.60;74.30;;;;;;5034934;28;20022;-84
2021/12/05 05:21:03;;;;;;;2.38;0.70;;;7.60;74.30;;;;;;5033677;28;20120;-82
2021/12/05 05:40:11;;;;;;;1.33;0.52;;;7.70;74.40;;;;;;5035403;28;20505;-74
2021/12/05 05:48:30;;;;;;;3.80;0.50;;;7.80;74.50;;;;;;5026480;28;20048;-73
2021/12/05 05:50:46;;;;;;;2.55;0.60;;;7.80;74.50;;;;;;5010659;28;20502;-73
2021/12/05 05:53:12;;;;;;;2.35;0.60;;;7.80;74.50;;;;;;5013231;28;20077;-77
2021/12/05 05:55:38;;;;;;;2.58;0.90;;;7.90;74.60;;;;;;5015213;28;20057;-77
2021/12/05 05:58:26;;;;;;;1.83;0.75;;;7.90;74.60;;;;;;5028045;28;20077;-73
2021/12/05 06:01:01;;;;;;;2.28;0.95;;;7.90;74.60;;;;;;5012002;28;20064;-73
2021/12/05 06:03:27;;;;;;;2.70;0.63;;;7.90;74.50;;;;;;5029219;28;20484;-85
2021/12/05 06:05:53;;;;;;;1.08;0.60;;;7.90;74.40;;;;;;5011073;28;20037;-73
2021/12/05 06:08:23;;;;;;;1.38;0.50;;;8.00;74.60;;;;;;5022531;28;20034;-74
2021/12/05 06:10:49;;;;;;;3.22;0.70;;;8.00;74.60;;;;;;5009723;28;20489;-83
2021/12/05 06:13:18;;;;;;;2.22;0.75;;;8.00;74.50;;;;;;5016555;28;20029;-76
2021/12/05 06:15:45;;;;;;;0.90;0.47;;;8.00;74.50;;;;;;5029154;28;20041;-73
2021/12/05 06:18:11;;;;;;;3.72;0.50;;;8.00;74.40;;;;;;5027289;28;20040;-73
2021/12/05 06:20:37;;;;;;;1.58;0.73;;;8.00;74.40;;;;;;5028644;28;20033;-72
2021/12/05 06:23:03;;;;;;;1.40;0.40;;;8.00;74.30;;;;;;5028713;28;20044;-75
2021/12/05 06:25:33;;;;;;;2.60;0.47;;;8.00;74.30;;;;;;5025746;28;20026;-73
2021/12/05 06:28:04;;;;;;;1.90;0.40;;;8.00;74.20;;;;;;5023913;28;20065;-80
2021/12/05 06:41:12;;;;;;;2.73;0.50;;;8.10;74.20;;;;;;5008304;28;20045;-77
2021/12/05 06:46:18;;;;;;;3.70;0.65;;;8.10;74.20;;;;;;5027572;28;20582;-76
2021/12/05 06:48:45;;;;;;;1.30;0.50;;;8.10;74.10;;;;;;5028493;28;20081;-78
2021/12/05 06:51:17;;;;;;;2.97;0.70;;;8.10;74.00;;;;;;5029051;28;20654;-74
2021/12/05 06:53:43;;;;;;;1.02;0.32;;;8.10;74.00;;;;;;5027775;28;20432;-75
2021/12/05 06:56:09;;;;;;;2.92;0.80;;;8.10;74.00;;;;;;5028035;28;20033;-74
2021/12/05 06:58:36;;;;;;;1.00;0.50;;;8.10;74.00;;;;;;5027329;28;20172;-74
2021/12/05 07:01:06;;;;;;;0.88;0.40;;;8.10;74.00;;;;;;5022562;28;20100;-78
2021/12/05 07:03:33;;;;;;;1.52;0.52;;;8.10;74.00;;;;;;5008148;28;20397;-74
2021/12/05 07:06:06;;;;;;;0.70;0.50;;;8.10;73.90;;;;;;5007536;28;20111;-74
2021/12/05 07:08:36;;;;;;;;;;;8.10;73.90;;;;;;5028725;28;20022;-74
2021/12/05 07:16:09;;;;;;;3.08;0.40;;;8.00;73.70;;;;;;5037511;28;20128;-75
2021/12/05 07:18:44;;;;;;;4.05;0.77;;;8.00;73.70;;;;;;5026701;28;20033;-74
2021/12/05 07:24:15;;;;;;;1.58;0.70;;;8.10;74.10;;;;;;4988783;28;20536;-73
2021/12/05 07:40:23;;;;;;;2.03;0.65;;;8.20;74.10;;;;;;5010108;28;20024;-77
2021/12/05 07:43:10;;;;;;;0.85;0.47;;;8.20;74.00;;;;;;5024319;28;20522;-76
2021/12/05 07:45:44;;;;;;;3.10;0.98;;;8.20;73.90;;;;;;5021883;28;20187;-75
2021/12/05 07:48:21;;;;;;;4.88;0.93;;;8.20;73.90;;;;;;5022283;28;20048;-75
2021/12/05 07:50:58;;;;;;;1.63;0.50;;;8.20;73.80;;;;;;5005620;28;20440;-78
2021/12/05 07:53:30;;;;;;;3.22;0.80;;;8.20;73.80;;;;;;5011628;28;20256;-76
2021/12/05 07:56:05;;;;;;;3.38;0.45;;;8.20;73.80;;;;;;5024494;28;20366;-81
2021/12/05 08:01:16;;;;;;;2.67;0.70;;;8.20;73.80;;;;;;5026247;28;20044;-77
2021/12/05 08:14:48;;;;;;;0.90;0.40;;;8.20;73.50;;;;;;5021172;28;20029;-75
2021/12/05 08:17:18;;;;;;;2.97;0.63;;;8.20;73.40;;;;;;5026252;28;20037;-75
2021/12/05 08:19:45;;;;;;;1.92;0.50;;;8.30;73.60;;;;;;5008799;28;20109;-75
2021/12/05 08:22:11;;;;;;;1.25;0.50;;;8.30;73.50;;;;;;5006604;28;20128;-77
2021/12/05 08:24:40;;;;;;;1.70;0.50;;;8.30;73.50;;;;;;5010593;28;20034;-74
2021/12/05 08:27:08;;;;;;;1.10;0.40;;;8.30;73.50;;;;;;5033264;28;20097;-95
2021/12/05 08:29:49;;;;;;;2.60;0.50;;;8.30;73.50;;;;;;5024361;28;20061;-77
2021/12/05 08:32:32;;;;;;;2.30;0.95;;;8.30;73.50;;;;;;5022316;28;20057;-86
2021/12/05 09:08:44;;;;;;;3.25;0.68;;;8.40;73.20;;;;;;5030032;28;20076;-76
2021/12/05 09:38:31;;;;;;;0.98;0.43;;;8.50;72.80;;;;;;5007163;28;20034;-75
2021/12/05 10:08:33;;;;;;;2.10;0.82;;;8.80;72.60;;;;;;5029533;28;20380;-74
2021/12/05 10:13:02;;;;;;;1.98;0.90;;;8.80;72.60;;;;;;5044862;28;20037;-76
2021/12/05 10:27:10;;;;;;;2.35;0.77;;;9.00;72.60;;;;;;5008283;28;20024;-78
2021/12/05 10:38:12;;;;;;;5.65;1.48;;;9.20;72.40;;;;;;5023156;28;20061;-77
2021/12/05 10:40:58;;;;;;;5.47;1.55;;;9.20;71.80;;;;;;5026014;28;20463;-76
2021/12/05 10:43:25;;;;;;;5.45;1.00;;;9.20;71.40;;;;;;5017747;28;20037;-75
2021/12/05 10:46:11;;;;;;;3.38;0.95;;;9.20;71.10;;;;;;5006719;28;20072;-75
2021/12/05 10:48:47;;;;;;;5.22;1.15;;;9.20;70.50;;;;;;5008804;28;20034;-76
2021/12/05 10:51:27;;;;;;;2.63;0.70;;;9.20;70.20;;;;;;5010368;28;20052;-78
2021/12/05 10:53:59;;;;;;;4.70;1.00;;;9.10;69.60;;;;;;5015143;28;20033;-78
2021/12/05 10:56:33;;;;;;;4.88;0.90;;;9.10;69.30;;;;;;5028376;28;20029;-81
2021/12/05 10:59:16;;;;;;;4.50;1.20;;;9.10;68.90;;;;;;5035709;28;20507;-75
2021/12/05 11:01:47;;;;;;;2.67;0.93;;;9.10;68.60;;;;;;5026741;28;20557;-76
2021/12/05 11:04:16;;;;;;;2.97;0.70;;;9.10;68.50;;;;;;5005441;28;20159;-76
2021/12/05 11:06:52;;;;;;;5.63;1.30;;;9.10;68.20;;;;;;5010391;28;20117;-77
2021/12/05 11:09:48;;;;;;;2.15;1.20;;;9.10;67.90;;;;;;4990270;28;20030;-77
2021/12/05 11:12:24;;;;;;;5.22;1.92;;;9.10;67.60;;;;;;5012750;28;20121;-81
2021/12/05 11:14:53;;;;;;;4.50;1.30;;;9.10;67.40;;;;;;5023273;28;20096;-76
2021/12/05 11:17:21;;;;;;;4.68;1.45;;;9.10;67.10;;;;;;5007661;28;20497;-76
2021/12/05 11:19:50;;;;;;;4.45;1.33;;;9.10;66.90;;;;;;5007007;28;20038;-76
2021/12/05 11:22:22;;;;;;;7.65;1.10;;;9.10;66.70;;;;;;5007513;28;20052;-75
2021/12/05 11:24:56;;;;;;;2.90;0.90;;;9.10;66.30;;;;;;4990348;28;20066;-80
2021/12/05 11:27:32;;;;;;;3.75;0.80;;;9.20;66.20;;;;;;5007471;28;20404;-81
2021/12/05 11:30:22;;;;;;;4.40;1.00;;;9.20;65.80;;;;;;5023152;28;20555;-78
2021/12/05 11:32:54;;;;;;;6.38;0.73;;;9.20;65.70;;;;;;5026936;28;20045;-82
2021/12/05 11:35:20;;;;;;;6.87;1.40;;;9.30;66.10;;;;;;5026453;28;20033;-80
2021/12/05 11:38:00;;;;;;;5.55;1.38;;;9.30;66.30;;;;;;5026716;28;20262;-75
2021/12/05 11:40:55;;;;;;;3.17;0.85;;;9.40;66.70;;;;;;5023698;28;20034;-75
2021/12/05 11:43:40;;;;;;;3.83;1.58;;;9.50;66.90;;;;;;5001314;28;20163;-83
2021/12/05 11:46:36;;;;;;;2.10;0.70;;;9.50;66.80;;;;;;5020343;28;20028;-83
2021/12/05 11:49:16;;;;;;;3.47;1.00;;;9.50;66.70;;;;;;5014997;28;20410;-77
2021/12/05 11:51:44;;;;;;;2.47;1.00;;;9.50;66.70;;;;;;5027126;28;20374;-79
2021/12/05 11:54:13;;;;;;;4.72;1.33;;;9.60;66.80;;;;;;5024863;28;20037;-78
2021/12/05 11:56:45;;;;;;;4.32;0.88;;;9.60;66.70;;;;;;5009042;28;20049;-78
2021/12/05 11:59:31;;;;;;;2.83;1.07;;;9.50;66.50;;;;;;5024896;28;20057;-76
2021/12/05 12:02:23;;;;;;;2.55;0.73;;;9.60;66.70;;;;;;5014844;28;20052;-77
2021/12/05 12:05:07;;;;;;;4.15;1.50;;;9.60;66.60;;;;;;5013086;28;20046;-86
2021/12/05 12:07:50;;;;;;;5.10;1.40;;;9.60;67.20;;;;;;5005616;28;20064;-83
2021/12/05 12:10:39;;;;;;;5.97;1.20;;;9.70;67.80;;;;;;5005240;28;20037;-83
2021/12/05 12:13:07;;;;;;;3.58;1.30;;;9.80;68.10;;;;;;5005239;28;20096;-81
2021/12/05 12:15:36;;;;;;;3.88;1.10;;;9.90;68.20;;;;;;5022557;28;20041;-85
2021/12/05 12:18:16;;;;;;;3.95;1.30;;;9.90;68.20;;;;;;5020059;28;20491;-86
2021/12/05 12:20:45;;;;;;;7.10;1.35;;;9.90;68.20;;;;;;5025917;28;20427;-76
2021/12/05 12:23:15;;;;;;;2.25;1.48;;;9.90;68.10;;;;;;5018559;28;20072;-77
2021/12/05 12:25:45;;;;;;;5.70;2.30;;;9.90;68.10;;;;;;5006847;28;20026;-79
2021/12/05 12:28:12;;;;;;;3.75;1.55;;;9.90;68.10;;;;;;5006184;28;20680;-77
2021/12/05 12:30:48;;;;;;;3.05;1.00;;;9.90;68.10;;;;;;5006237;28;20088;-75
2021/12/05 12:33:20;;;;;;;11.82;1.73;;;9.80;67.80;;;;;;5004011;28;20052;-78
2021/12/05 12:35:48;;;;;;;2.37;0.80;;;9.80;67.80;;;;;;5016008;28;20033;-82
2021/12/05 12:38:21;;;;;;;4.20;0.90;;;9.80;67.80;;;;;;5025313;28;20030;-85
2021/12/05 12:41:12;;;;;;;3.47;1.00;;;9.80;67.80;;;;;;5024801;28;20029;-80
2021/12/05 12:43:38;;;;;;;4.20;1.33;;;9.70;67.60;;;;;;5015718;28;20042;-82
2021/12/05 12:46:30;;;;;;;2.88;1.02;;;9.70;67.70;;;;;;5023305;28;20032;-76
2021/12/05 12:49:14;;;;;;;3.88;1.08;;;9.70;67.60;;;;;;5037260;28;20044;-82
2021/12/05 12:51:47;;;;;;;3.30;1.02;;;9.70;67.70;;;;;;5025010;28;20037;-76
2021/12/05 12:54:31;;;;;;;2.33;0.90;;;9.70;67.60;;;;;;5012966;28;20033;-75
2021/12/05 12:57:15;;;;;;;4.20;1.70;;;9.70;67.60;;;;;;5025700;28;20029;-77
2021/12/05 12:59:47;;;;;;;1.75;0.98;;;9.70;67.60;;;;;;5026773;28;20080;-79
2021/12/05 13:05:04;;;;;;;4.60;1.35;;;9.70;67.70;;;;;;5028132;28;20030;-79
2021/12/05 13:10:30;;;;;;;3.65;1.05;;;9.70;67.60;;;;;;5026309;28;20127;-76
2021/12/05 13:13:05;;;;;;;2.85;0.80;;;9.70;67.60;;;;;;5025804;28;20036;-79
2021/12/05 13:15:39;;;;;;;4.82;1.35;;;9.70;67.60;;;;;;5026178;28;20041;-77
2021/12/05 13:18:10;;;;;;;2.92;1.05;;;9.70;67.60;;;;;;5025330;28;20029;-78
2021/12/05 13:20:42;;;;;;;2.97;0.80;;;9.70;67.60;;;;;;5025472;28;20152;-80
2021/12/05 13:23:18;;;;;;;3.42;1.00;;;9.70;67.60;;;;;;5024230;28;20117;-78
2021/12/05 13:26:11;;;;;;;2.80;0.77;;;9.70;67.60;;;;;;5024599;28;20030;-79
2021/12/05 13:28:44;;;;;;;3.92;1.35;;;9.70;67.60;;;;;;5010507;28;20211;-77
2021/12/05 13:31:45;;;;;;;6.30;2.38;;;9.70;67.60;;;;;;5027233;28;20033;-82
2021/12/05 13:34:22;;;;;;;5.45;1.30;;;9.70;67.90;;;;;;5001608;28;20037;-81
2021/12/05 13:37:15;;;;;;;4.00;1.73;;;9.70;68.10;;;;;;5026518;28;20136;-81
2021/12/05 13:40:03;;;;;;;4.18;1.48;;;9.80;68.40;;;;;;4999493;28;20573;-76
2021/12/05 13:42:36;;;;;;;4.03;1.40;;;9.70;68.20;;;;;;5029102;28;20103;-80
2021/12/05 13:45:11;;;;;;;1.90;1.30;;;9.70;68.30;;;;;;5029639;28;20032;-79
2021/12/05 13:47:52;;;;;;;1.20;1.08;;;9.70;68.30;;;;;;5045272;28;20383;-78
2021/12/05 13:50:18;;;;;;;5.30;1.60;;;9.70;68.30;;;;;;5045037;28;20516;-82
2021/12/05 13:52:56;;;;;;;4.18;1.33;;;9.70;68.30;;;;;;5029348;28;20543;-77
2021/12/05 13:55:39;;;;;;;4.32;1.48;;;9.70;68.30;;;;;;5028920;28;20413;-77
2021/12/05 13:58:34;;;;;;;2.38;1.15;;;9.80;68.50;;;;;;5028327;28;20554;-83
2021/12/05 14:01:03;;;;;;;2.90;1.10;;;9.80;68.50;;;;;;5044010;28;20503;-78
2021/12/05 14:04:10;;;;;;;3.67;1.08;;;9.80;68.50;;;;;;5043146;28;20040;-75
2021/12/05 14:07:01;;;;;;;3.10;1.58;;;9.90;68.60;;;;;;4932147;29;20038;-78
2021/12/05 14:09:36;;;;;;;2.58;1.00;;;9.90;68.50;;;;;;4999120;28;20504;-79
2021/12/05 14:12:17;;;;;;;1.65;0.95;;;10.00;69.10;;;;;;5009179;28;20036;-75
2021/12/05 14:14:51;;;;;;;2.35;1.00;;;10.00;68.50;;;;;;5009032;28;20030;-76
2021/12/05 14:17:25;;;;;;;2.78;0.95;;;10.10;68.60;;;;;;5009140;28;20100;-74
2021/12/05 14:19:54;;;;;;;3.35;1.70;;;10.10;68.50;;;;;;5009040;28;20291;-75
2021/12/05 14:22:22;;;;;;;3.08;1.13;;;10.10;68.50;;;;;;5007975;28;20045;-76
2021/12/05 14:24:53;;;;;;;3.38;1.20;;;10.10;68.40;;;;;;5008967;28;20060;-79
2021/12/05 14:27:23;;;;;;;3.58;1.10;;;10.10;68.30;;;;;;5006556;28;20038;-77
2021/12/05 14:29:51;;;;;;;1.70;1.05;;;10.10;68.30;;;;;;5023606;28;20025;-81
2021/12/05 14:32:27;;;;;;;5.70;1.70;;;10.10;68.30;;;;;;5009428;28;20501;-78
2021/12/05 14:35:00;;;;;;;2.08;1.00;;;10.20;68.40;;;;;;5016202;28;20501;-82
2021/12/05 14:37:28;;;;;;;1.00;0.70;;;10.10;68.20;;;;;;5022889;28;20029;-81
2021/12/05 14:40:07;;;;;;;1.85;0.98;;;10.10;68.20;;;;;;5025253;28;20033;-78
2021/12/05 14:42:36;;;;;;;4.45;1.00;;;10.10;68.20;;;;;;5023300;28;20477;-80
2021/12/05 14:45:10;;;;;;;2.08;1.23;;;10.10;68.20;;;;;;5002266;28;20033;-80
2021/12/05 14:47:36;;;;;;;1.77;0.90;;;10.10;68.30;;;;;;5033722;28;20094;-78
2021/12/05 14:50:09;;;;;;;2.92;1.00;;;10.10;68.30;;;;;;5022449;28;20024;-78
2021/12/05 14:52:36;;;;;;;;;;;10.00;68.10;;;;;;5020482;28;20044;-78
2021/12/05 14:55:06;;;;;;;3.88;1.00;;;10.00;68.20;;;;;;5042573;28;19909;-78
2021/12/05 14:57:39;;;;;;;3.88;1.45;;;10.00;68.20;;;;;;5015084;28;20128;-78
2021/12/05 15:00:12;;;;;;;2.60;1.13;;;10.00;68.30;;;;;;5023540;28;20570;-80
2021/12/05 15:02:39;;;;;;;2.95;1.00;;;10.00;68.30;;;;;;5023583;28;20041;-82
2021/12/05 15:05:09;;;;;;;2.28;1.13;;;10.00;68.40;;;;;;5007106;28;20030;-76
2021/12/05 15:07:35;;;;;;;2.45;0.73;;;10.00;68.40;;;;;;5007630;28;20116;-78
2021/12/05 15:10:01;;;;;;;2.70;0.80;;;10.00;68.40;;;;;;5014501;28;20376;-74
2021/12/05 15:12:30;;;;;;;3.67;1.10;;;9.90;68.20;;;;;;5025143;28;20036;-75
2021/12/05 15:15:01;;;;;;;2.70;1.20;;;9.90;68.30;;;;;;5004832;28;20034;-76
2021/12/05 15:17:36;;;;;;;3.92;1.25;;;9.90;68.30;;;;;;5006161;28;20041;-74
2021/12/05 15:20:07;;;;;;;1.85;1.20;;;9.90;68.30;;;;;;5005832;28;20033;-78
2021/12/05 15:22:35;;;;;;;1.67;1.05;;;9.90;68.30;;;;;;5004242;28;20042;-80
2021/12/05 15:25:04;;;;;;;1.92;0.73;;;9.90;68.40;;;;;;5004487;28;20033;-74
2021/12/05 15:27:33;;;;;;;2.67;0.90;;;9.90;68.40;;;;;;5010868;28;20492;-74
2021/12/05 15:30:28;;;;;;;2.83;1.05;;;9.80;68.20;;;;;;5008761;28;20030;-74
2021/12/05 15:33:04;;;;;;;3.03;1.15;;;9.80;68.20;;;;;;5006541;28;20048;-75
2021/12/05 15:35:31;;;;;;;1.83;0.77;;;9.80;68.30;;;;;;5023528;28;20033;-75
2021/12/05 15:38:08;;;;;;;2.45;0.98;;;9.80;68.30;;;;;;5010506;28;20049;-74
2021/12/05 15:40:38;;;;;;;2.58;1.33;;;9.70;68.10;;;;;;5030260;28;20118;-79
2021/12/05 15:43:07;;;;;;;2.05;1.00;;;9.70;68.20;;;;;;5028090;28;20037;-76
2021/12/05 15:45:34;;;;;;;2.25;0.90;;;9.70;68.20;;;;;;5042875;28;20528;-77
2021/12/05 15:48:01;;;;;;;3.20;1.35;;;9.70;68.30;;;;;;5009357;28;20504;-76
2021/12/05 15:50:31;;;;;;;1.95;1.08;;;9.60;68.10;;;;;;5026834;28;20021;-74
2021/12/05 15:53:11;;;;;;;2.95;0.82;;;9.70;68.30;;;;;;5029136;28;20579;-75
2021/12/05 15:55:51;;;;;;;2.65;0.90;;;9.70;68.30;;;;;;5027913;28;20037;-75
2021/12/05 15:58:24;;;;;;;1.60;0.85;;;9.60;68.20;;;;;;5027659;28;20022;-75
2021/12/05 16:01:12;;;;;;;2.00;0.77;;;9.60;68.20;;;;;;5028019;28;20037;-74
2021/12/05 16:03:44;;;;;;;1.30;0.60;;;9.60;68.30;;;;;;5024779;28;20122;-75
2021/12/05 16:06:13;;;;;;;1.60;0.80;;;9.60;68.30;;;;;;4991362;28;20104;-74
2021/12/05 16:08:40;;;;;;;1.80;0.90;;;9.60;68.30;;;;;;5013610;28;20041;-81
2021/12/05 16:11:14;;;;;;;1.98;0.70;;;9.60;68.30;;;;;;5014819;28;20036;-75
2021/12/05 16:13:42;;;;;;;2.20;0.90;;;9.50;68.10;;;;;;5028407;28;20333;-75
2021/12/05 16:16:27;;;;;;;3.65;1.75;;;9.60;68.40;;;;;;5028566;28;20021;-80
2021/12/05 16:18:58;;;;;;;2.88;1.10;;;9.60;68.40;;;;;;5031028;28;20026;-77
2021/12/05 16:21:28;;;;;;;6.05;1.50;;;9.50;68.20;;;;;;5041727;28;20441;-75
2021/12/05 16:24:08;;;;;;;2.97;0.98;;;9.50;68.20;;;;;;5030176;28;20076;-77
2021/12/05 16:26:35;;;;;;;2.22;0.98;;;9.50;68.30;;;;;;5007568;28;20022;-83
2021/12/05 16:29:08;;;;;;;4.05;0.80;;;9.40;68.20;;;;;;5016599;28;20144;-82
2021/12/05 16:31:41;;;;;;;2.90;1.25;;;9.40;68.20;;;;;;5021979;28;20072;-82
2021/12/05 16:34:09;;;;;;;;;;;9.40;68.20;;;;;;5012786;28;20078;-89
2021/12/05 16:36:39;;;;;;;1.92;0.85;;;9.40;68.30;;;;;;5006153;28;19909;-85
2021/12/05 16:39:09;;;;;;;1.55;0.80;;;9.40;68.20;;;;;;5006504;28;20084;-76
2021/12/05 16:41:35;;;;;;;1.77;0.80;;;9.40;68.30;;;;;;5021709;28;20091;-79
2021/12/05 16:44:09;;;;;;;2.65;1.00;;;9.40;68.30;;;;;;5006305;28;20486;-78
2021/12/05 16:46:48;;;;;;;6.25;1.80;;;9.40;68.40;;;;;;5021821;28;20042;-79
2021/12/05 16:49:21;;;;;;;3.72;1.33;;;9.30;68.20;;;;;;5014040;28;20033;-77
2021/12/05 16:51:49;;;;;;;2.40;1.05;;;9.30;68.30;;;;;;5005838;28;20493;-78
2021/12/05 16:54:33;;;;;;;1.45;0.80;;;9.30;68.30;;;;;;5005361;28;20033;-77
2021/12/05 16:57:03;;;;;;;2.15;0.90;;;9.30;68.30;;;;;;5005380;28;20426;-75
2021/12/05 16:59:32;;;;;;;4.47;1.10;;;9.30;68.30;;;;;;5004746;28;20073;-83
2021/12/05 17:02:29;;;;;;;4.38;1.50;;;9.20;68.10;;;;;;5005500;28;20489;-83
2021/12/05 17:05:06;;;;;;;2.25;1.17;;;9.30;68.70;;;;;;5005889;28;20026;-76
2021/12/05 17:08:06;;;;;;;3.17;1.10;;;9.30;68.90;;;;;;5008615;28;20057;-75
2021/12/05 17:10:47;;;;;;;4.38;1.50;;;9.30;69.10;;;;;;5009888;28;20072;-76
2021/12/05 17:13:34;;;;;;;2.45;1.10;;;9.20;68.90;;;;;;5015823;28;20033;-77
2021/12/05 17:16:16;;;;;;;2.67;0.90;;;9.30;69.10;;;;;;5028001;28;20072;-77
2021/12/05 17:18:58;;;;;;;4.80;1.30;;;9.20;68.90;;;;;;5029424;28;20496;-79
2021/12/05 17:21:29;;;;;;;2.63;1.08;;;9.20;69.00;;;;;;5029131;28;20290;-75
2021/12/05 17:24:06;;;;;;;2.92;0.85;;;9.20;69.10;;;;;;5027986;28;20151;-78
2021/12/05 17:26:42;;;;;;;2.45;1.10;;;9.10;68.90;;;;;;5029531;28;20116;-76
2021/12/05 17:29:35;;;;;;;3.75;1.33;;;9.10;69.00;;;;;;5029415;28;20033;-73
2021/12/05 17:32:07;;;;;;;;;;;9.10;69.10;;;;;;5030343;28;20037;-74
2021/12/05 17:34:36;;;;;;;3.75;1.33;;;9.00;68.90;;;;;;5028812;28;19935;-79
2021/12/05 17:37:10;;;;;;;4.18;1.73;;;9.00;68.90;;;;;;5044440;28;20274;-77
2021/12/05 17:39:42;;;;;;;3.10;1.10;;;9.00;68.90;;;;;;5028701;28;20404;-79
2021/12/05 17:42:16;;;;;;;4.32;1.25;;;9.00;69.00;;;;;;5011720;28;20065;-75
2021/12/05 17:44:43;;;;;;;1.92;1.33;;;8.90;68.90;;;;;;5011228;28;20029;-74
2021/12/05 17:47:13;;;;;;;2.17;0.95;;;8.90;69.00;;;;;;5028993;28;20033;-77
2021/12/05 17:49:41;;;;;;;3.22;1.10;;;8.90;69.00;;;;;;5029271;28;20037;-74
2021/12/05 17:52:09;;;;;;;3.20;1.10;;;8.90;69.10;;;;;;5044356;28;20083;-78
2021/12/05 17:54:49;;;;;;;3.25;1.25;;;8.90;69.10;;;;;;5027429;28;20056;-75
2021/12/05 17:57:20;;;;;;;2.25;1.15;;;8.90;69.20;;;;;;5029267;28;20033;-73
2021/12/05 18:05:39;;;;;;;1.77;0.85;;;8.80;69.10;;;;;;5028689;28;20033;-74
2021/12/05 18:08:10;;;;;;;4.05;1.13;;;8.80;69.10;;;;;;5024443;28;20033;-74
2021/12/05 18:10:42;;;;;;;2.40;1.15;;;8.80;69.10;;;;;;5008333;28;20805;-85
2021/12/05 18:13:12;;;;;;;3.53;1.30;;;8.70;69.00;;;;;;4997173;28;20185;-81
2021/12/05 18:15:46;;;;;;;4.10;1.23;;;8.70;69.00;;;;;;5029373;28;20258;-73
2021/12/05 18:18:13;;;;;;;2.60;1.17;;;8.70;69.00;;;;;;5028878;28;20037;-84
2021/12/05 18:20:39;;;;;;;4.53;2.08;;;8.70;69.00;;;;;;5027949;28;20417;-80
2021/12/05 18:23:08;;;;;;;4.28;1.33;;;8.70;69.10;;;;;;5028443;28;20564;-78
2021/12/05 18:25:36;;;;;;;2.65;1.33;;;8.70;69.10;;;;;;5028794;28;20022;-74
2021/12/05 18:28:03;;;;;;;2.75;1.15;;;8.70;69.10;;;;;;5028395;28;20079;-74
2021/12/05 18:30:29;;;;;;;3.75;1.50;;;8.70;69.10;;;;;;5028277;28;20243;-73
2021/12/05 18:32:57;;;;;;;3.22;1.10;;;8.70;69.10;;;;;;5027054;28;20056;-79
2021/12/05 18:35:28;;;;;;;1.83;1.15;;;8.70;69.10;;;;;;5028310;28;20037;-74
2021/12/05 18:37:56;;;;;;;4.82;1.15;;;8.70;69.10;;;;;;5027482;28;20103;-73
2021/12/05 18:40:23;;;;;;;2.78;1.25;;;8.60;69.00;;;;;;5028942;28;20034;-79
2021/12/05 18:42:49;;;;;;;3.88;1.40;;;8.70;69.20;;;;;;5027925;28;20524;-76
2021/12/05 18:45:19;;;;;;;3.85;1.13;;;8.70;69.20;;;;;;5044055;28;20042;-81
2021/12/05 18:47:45;;;;;;;6.00;1.23;;;8.70;69.30;;;;;;5028557;28;20030;-74